Pilot_jp_virden — WD14560 — position and weather

sailwx.info

Track history (hours):
 
Tides and Currents Weather Stations Pressure Air Temp Water Temp Dewpoint Dewpoint Depression Visibility Wind Speed Wind Dir Waves Ship Positions

Pilot_jp_virden

Last reported at 2017-Dec-03 10:37 UTC. Time now 2017-Dec-15 04:24 UTC.
Position N 38°47' W 075°07'.
Warning: this ship's position is 11 days out of date.

Length 16 m.

Type: Pilot. MMSI: 367699890.

Date/timePositionNaut miles runAvg speedWind from/ knotsBaromVisibWave heightAir tempDewpointWater temp
2017-Dec-03 10:37N 38°47' W 075°07'0 0.0
2017-Dec-02 11:03N 38°47' W 075°07'0 0.0
2017-Dec-02 10:41N 38°47' W 075°07'0 0.0
2017-Dec-01 09:30N 38°47' W 075°07'0 0.0
2017-Dec-01 04:47N 38°47' W 075°07'0 0.0
2017-Dec-01 04:30N 38°47' W 075°07'0 0.0
2017-Dec-01 03:32N 38°47' W 075°07'0 0.0
2017-Dec-01 03:29N 38°47' W 075°07'0 0.0
2017-Dec-01 02:00N 38°47' W 075°07'0 0.0
2017-Nov-29 14:14N 38°47' W 075°07'0 0.0
2017-Nov-29 14:00N 38°47' W 075°07'0 0.0
2017-Nov-29 13:30N 38°47' W 075°07'0 0.0
2017-Nov-29 13:00N 38°47' W 075°07'0 0.0
2017-Nov-29 12:30N 38°47' W 075°07'0 0.0
2017-Nov-29 12:00N 38°47' W 075°07'1 2.9
2017-Nov-29 11:31N 38°48' W 075°07'1 2.9
2017-Nov-29 11:01N 38°47' W 075°07'0 0.0
2017-Nov-29 10:31N 38°47' W 075°07'0 0.0
2017-Nov-29 10:00N 38°47' W 075°07'0 0.0
2017-Nov-29 09:31N 38°47' W 075°07'3 5.5
2017-Nov-29 09:00N 38°47' W 075°04'3 5.5
2017-Nov-29 08:30N 38°47' W 075°07'4 0.9
2017-Nov-29 03:53N 38°51' W 075°05'0 0.0
2017-Nov-28 14:51N 38°51' W 075°05'411.8
2017-Nov-28 14:28N 38°47' W 075°07'0 0.0
2017-Nov-28 13:51N 38°47' W 075°07'0 0.0
2017-Nov-28 13:29N 38°47' W 075°07'0 0.0
2017-Nov-28 10:26N 38°47' W 075°07'0 0.0
2017-Nov-28 09:59N 38°47' W 075°07'0 0.0
2017-Nov-28 09:22N 38°47' W 075°07'  
2017-Nov-25 15:03N 38°47' W 075°07'0 0.0
2017-Nov-25 14:56N 38°47' W 075°07'0 0.0
2017-Nov-25 14:29N 38°47' W 075°07'0 0.0
2017-Nov-25 14:00N 38°47' W 075°07'0 0.0
2017-Nov-25 13:30N 38°47' W 075°07'0 0.0
2017-Nov-25 13:00N 38°47' W 075°07'0 0.0
2017-Nov-25 12:30N 38°47' W 075°07'0 0.0
2017-Nov-25 12:00N 38°47' W 075°07'0 0.0
2017-Nov-25 11:30N 38°47' W 075°07'0 0.0
2017-Nov-25 11:00N 38°47' W 075°07'0 0.0
2017-Nov-25 10:30N 38°47' W 075°07'0 0.0
2017-Nov-25 09:58N 38°47' W 075°07'0 0.0
2017-Nov-25 09:30N 38°47' W 075°07'0 0.0
2017-Nov-25 09:00N 38°47' W 075°07'0 0.0
2017-Nov-25 08:30N 38°47' W 075°07'0 0.0
2017-Nov-25 08:00N 38°47' W 075°07'0 0.0
2017-Nov-25 07:30N 38°47' W 075°07'0 0.0
2017-Nov-25 07:00N 38°47' W 075°07'0 0.0
2017-Nov-25 06:27N 38°47' W 075°07'0 0.0
2017-Nov-25 05:36N 38°47' W 075°07'0 0.0
2017-Nov-25 05:13N 38°47' W 075°07'0 0.0
2017-Nov-25 04:45N 38°47' W 075°07'0 0.0
2017-Nov-25 01:38N 38°47' W 075°07'420.2
2017-Nov-25 01:25N 38°51' W 075°07'1 3.3
2017-Nov-25 01:00N 38°53' W 075°06'5 7.6
2017-Nov-25 00:17N 38°48' W 075°03'3 7.6
2017-Nov-24 23:52N 38°48' W 075°07'  
Track history (hours):
 
Tides and Currents Weather Stations Pressure Air Temp Water Temp Dewpoint Dewpoint Depression Visibility Wind Speed Wind Dir Waves Ship Positions

Pilot_jp_virden

Last reported at 2017-Dec-03 10:37 UTC. Time now 2017-Dec-15 04:24 UTC.
Position N 38°47' W 075°07'.
Warning: this ship's position is 11 days out of date.

Length 16 m.

Type: Pilot. MMSI: 367699890.

Date/timePositionNaut miles runAvg speedWind from/ knotsBaromVisibWave heightAir tempDewpointWater temp
2017-Dec-03 10:37N 38°47' W 075°07'0 0.0
2017-Dec-02 11:03N 38°47' W 075°07'0 0.0
2017-Dec-02 10:41N 38°47' W 075°07'0 0.0
2017-Dec-01 09:30N 38°47' W 075°07'0 0.0
2017-Dec-01 04:47N 38°47' W 075°07'0 0.0
2017-Dec-01 04:30N 38°47' W 075°07'0 0.0
2017-Dec-01 03:32N 38°47' W 075°07'0 0.0
2017-Dec-01 03:29N 38°47' W 075°07'0 0.0
2017-Dec-01 02:00N 38°47' W 075°07'0 0.0
2017-Nov-29 14:14N 38°47' W 075°07'0 0.0
2017-Nov-29 14:00N 38°47' W 075°07'0 0.0
2017-Nov-29 13:30N 38°47' W 075°07'0 0.0
2017-Nov-29 13:00N 38°47' W 075°07'0 0.0
2017-Nov-29 12:30N 38°47' W 075°07'0 0.0
2017-Nov-29 12:00N 38°47' W 075°07'1 2.9
2017-Nov-29 11:31N 38°48' W 075°07'1 2.9
2017-Nov-29 11:01N 38°47' W 075°07'0 0.0
2017-Nov-29 10:31N 38°47' W 075°07'0 0.0
2017-Nov-29 10:00N 38°47' W 075°07'0 0.0
2017-Nov-29 09:31N 38°47' W 075°07'3 5.5
2017-Nov-29 09:00N 38°47' W 075°04'3 5.5
2017-Nov-29 08:30N 38°47' W 075°07'4 0.9
2017-Nov-29 03:53N 38°51' W 075°05'0 0.0
2017-Nov-28 14:51N 38°51' W 075°05'411.8
2017-Nov-28 14:28N 38°47' W 075°07'0 0.0
2017-Nov-28 13:51N 38°47' W 075°07'0 0.0
2017-Nov-28 13:29N 38°47' W 075°07'0 0.0
2017-Nov-28 10:26N 38°47' W 075°07'0 0.0
2017-Nov-28 09:59N 38°47' W 075°07'0 0.0
2017-Nov-28 09:22N 38°47' W 075°07'  
2017-Nov-25 15:03N 38°47' W 075°07'0 0.0
2017-Nov-25 14:56N 38°47' W 075°07'0 0.0
2017-Nov-25 14:29N 38°47' W 075°07'0 0.0
2017-Nov-25 14:00N 38°47' W 075°07'0 0.0
2017-Nov-25 13:30N 38°47' W 075°07'0 0.0
2017-Nov-25 13:00N 38°47' W 075°07'0 0.0
2017-Nov-25 12:30N 38°47' W 075°07'0 0.0
2017-Nov-25 12:00N 38°47' W 075°07'0 0.0
2017-Nov-25 11:30N 38°47' W 075°07'0 0.0
2017-Nov-25 11:00N 38°47' W 075°07'0 0.0
2017-Nov-25 10:30N 38°47' W 075°07'0 0.0
2017-Nov-25 09:58N 38°47' W 075°07'0 0.0
2017-Nov-25 09:30N 38°47' W 075°07'0 0.0
2017-Nov-25 09:00N 38°47' W 075°07'0 0.0
2017-Nov-25 08:30N 38°47' W 075°07'0 0.0
2017-Nov-25 08:00N 38°47' W 075°07'0 0.0
2017-Nov-25 07:30N 38°47' W 075°07'0 0.0
2017-Nov-25 07:00N 38°47' W 075°07'0 0.0
2017-Nov-25 06:27N 38°47' W 075°07'0 0.0
2017-Nov-25 05:36N 38°47' W 075°07'0 0.0
2017-Nov-25 05:13N 38°47' W 075°07'0 0.0
2017-Nov-25 04:45N 38°47' W 075°07'0 0.0
2017-Nov-25 01:38N 38°47' W 075°07'420.2
2017-Nov-25 01:25N 38°51' W 075°07'1 3.3
2017-Nov-25 01:00N 38°53' W 075°06'5 7.6
2017-Nov-25 00:17N 38°48' W 075°03'3 7.6
2017-Nov-24 23:52N 38°48' W 075°07'  

Dump ship's entire track history